Time;durP1;ratioP1;P1;durP2;ratioP2;P2;SDS_P1;SDS_P2;PMS_P1;PMS_P2;Temp;Humidity;BMP_temperature;BMP_pressure;BME280_temperature;BME280_humidity;BME280_pressure;Samples;Min_cycle;Max_cycle;Signal;HPM_P1;HPM_P2
2022/07/11 00:02:02;;;;;;;;;;;16.60;99.90;;;;;;5101449;28;19962;-68
2022/07/11 00:04:29;;;;;;;;;;;16.50;99.90;;;;;;5095736;28;20007;-67
2022/07/11 00:06:56;;;;;;;;;;;16.50;99.90;;;;;;5104730;28;19983;-68
2022/07/11 00:09:23;;;;;;;;;;;16.50;99.90;;;;;;5088339;28;20089;-68
2022/07/11 00:11:49;;;;;;;;;;;16.40;99.90;;;;;;5084597;28;20122;-68
2022/07/11 00:14:16;;;;;;;;;;;16.40;99.90;;;;;;5085794;28;19921;-68
2022/07/11 00:16:44;;;;;;;;;;;16.40;99.90;;;;;;5104480;28;19963;-68
2022/07/11 00:19:11;;;;;;;;;;;16.40;99.90;;;;;;5104874;28;19996;-68
2022/07/11 00:21:38;;;;;;;;;;;16.30;99.90;;;;;;5090944;28;20089;-68
2022/07/11 00:24:05;;;;;;;;;;;16.30;99.90;;;;;;5103513;28;20231;-68
2022/07/11 00:26:31;;;;;;;;;;;16.30;99.90;;;;;;5095727;28;20199;-68
2022/07/11 00:28:58;;;;;;;;;;;16.30;99.90;;;;;;5103774;28;19958;-68
2022/07/11 00:31:25;;;;;;;;;;;16.20;99.90;;;;;;5104411;28;19987;-68
2022/07/11 00:33:53;;;;;;;;;;;16.20;99.90;;;;;;5084426;28;19920;-69
2022/07/11 00:36:19;;;;;;;;;;;16.20;99.90;;;;;;5083727;28;19983;-68
2022/07/11 00:38:46;;;;;;;;;;;16.20;99.90;;;;;;5083729;28;20116;-68
2022/07/11 00:41:13;;;;;;;;;;;16.20;99.90;;;;;;5083581;28;19921;-68
2022/07/11 00:43:41;;;;;;;;;;;16.20;99.90;;;;;;5096268;28;19920;-68
2022/07/11 00:46:09;;;;;;;;;;;16.20;99.90;;;;;;5101040;28;19988;-68
2022/07/11 00:48:36;;;;;;;;;;;16.20;99.90;;;;;;5103884;28;19987;-68
2022/07/11 00:51:04;;;;;;;;;;;16.20;99.90;;;;;;5088508;28;19966;-68
2022/07/11 00:53:31;;;;;;;;;;;16.10;99.90;;;;;;5082968;28;19971;-68
2022/07/11 00:55:58;;;;;;;;;;;16.10;99.90;;;;;;5083864;28;19920;-68
2022/07/11 00:58:25;;;;;;;;;;;16.10;99.90;;;;;;5103741;28;20198;-68
2022/07/11 01:00:52;;;;;;;;;;;16.10;99.90;;;;;;5103555;28;19987;-68
2022/07/11 01:03:18;;;;;;;;;;;16.10;99.90;;;;;;5102749;28;19971;-68
2022/07/11 01:05:45;;;;;;;;;;;16.10;99.90;;;;;;5103259;28;19924;-68
2022/07/11 01:08:13;;;;;;;;;;;16.20;99.90;;;;;;5103390;28;19956;-68
2022/07/11 01:10:40;;;;;;;;;;;16.20;99.90;;;;;;5102915;28;19987;-68
2022/07/11 01:13:07;;;;;;;;;;;16.10;99.90;;;;;;5102809;28;19928;-68
2022/07/11 01:15:34;;;;;;;;;;;16.20;99.90;;;;;;5103222;28;19962;-68
2022/07/11 01:18:01;;;;;;;;;;;16.20;99.90;;;;;;5103546;28;19926;-68
2022/07/11 01:20:28;;;;;;;;;;;16.20;99.90;;;;;;5102958;28;20178;-68
2022/07/11 01:22:57;;;;;;;;;;;16.20;99.90;;;;;;5102301;28;19927;-68
2022/07/11 01:25:31;;;;;;;;;;;16.20;99.90;;;;;;5097856;28;19971;-68
2022/07/11 01:27:58;;;;;;;;;;;16.20;99.90;;;;;;5102970;28;20211;-68
2022/07/11 01:30:25;;;;;;;;;;;16.20;99.90;;;;;;5103060;28;19936;-68
2022/07/11 01:32:52;;;;;;;;;;;16.20;99.90;;;;;;5102391;28;19978;-68
2022/07/11 01:35:19;;;;;;;;;;;16.20;99.90;;;;;;5103336;28;20162;-68
2022/07/11 01:37:45;;;;;;;;;;;16.20;99.90;;;;;;5102917;28;19924;-68
2022/07/11 01:40:12;;;;;;;;;;;16.20;99.90;;;;;;5102460;28;19964;-68
2022/07/11 01:42:40;;;;;;;;;;;16.20;99.90;;;;;;5095914;28;19991;-68
2022/07/11 01:45:07;;;;;;;;;;;16.10;99.90;;;;;;5100906;28;19928;-68
2022/07/11 01:47:34;;;;;;;;;;;16.10;99.90;;;;;;5094475;28;19927;-68
2022/07/11 01:50:01;;;;;;;;;;;16.10;99.90;;;;;;5087505;28;19927;-68
2022/07/11 01:52:28;;;;;;;;;;;16.10;99.90;;;;;;5098442;28;20079;-68
2022/07/11 01:54:54;;;;;;;;;;;16.10;99.90;;;;;;5102361;28;19948;-68
2022/07/11 01:57:21;;;;;;;;;;;16.10;99.90;;;;;;5103143;28;19948;-68
2022/07/11 01:59:49;;;;;;;;;;;16.00;99.90;;;;;;5102553;28;19987;-68
2022/07/11 02:02:16;;;;;;;;;;;16.00;99.90;;;;;;5102541;28;19983;-68
2022/07/11 02:04:43;;;;;;;;;;;16.00;99.90;;;;;;5097356;28;19921;-68
2022/07/11 02:07:11;;;;;;;;;;;16.00;99.90;;;;;;5096539;28;20001;-68
2022/07/11 02:09:37;;;;;;;;;;;15.90;99.90;;;;;;5102881;28;19962;-68
2022/07/11 02:12:05;;;;;;;;;;;16.00;99.90;;;;;;5102891;28;19920;-68
2022/07/11 02:14:31;;;;;;;;;;;16.00;99.90;;;;;;5102293;28;19927;-68
2022/07/11 02:16:59;;;;;;;;;;;15.90;99.90;;;;;;5103730;28;19920;-68
2022/07/11 02:19:26;;;;;;;;;;;15.90;99.90;;;;;;5087868;28;19987;-68
2022/07/11 02:21:52;;;;;;;;;;;15.90;99.90;;;;;;5098716;28;20208;-68
2022/07/11 02:24:19;;;;;;;;;;;15.80;99.90;;;;;;5103565;28;19951;-68
2022/07/11 02:26:46;;;;;;;;;;;15.80;99.90;;;;;;5100195;28;20268;-68
2022/07/11 02:29:12;;;;;;;;;;;15.80;99.90;;;;;;5106198;28;19920;-68
2022/07/11 02:31:39;;;;;;;;;;;15.80;99.90;;;;;;5098009;28;19954;-68
2022/07/11 02:34:07;;;;;;;;;;;15.80;99.90;;;;;;5105795;28;19920;-68
2022/07/11 02:36:33;;;;;;;;;;;15.70;99.90;;;;;;5106038;28;19951;-68
2022/07/11 02:39:00;;;;;;;;;;;15.70;99.90;;;;;;5106227;28;19962;-68
2022/07/11 02:41:29;;;;;;;;;;;15.70;99.90;;;;;;5106284;28;19965;-68
2022/07/11 02:43:55;;;;;;;;;;;15.70;99.90;;;;;;5105448;28;19926;-69
2022/07/11 02:46:22;;;;;;;;;;;15.70;99.90;;;;;;5095738;28;19920;-68
2022/07/11 02:48:49;;;;;;;;;;;15.60;99.90;;;;;;5098539;28;20139;-68
2022/07/11 02:51:18;;;;;;;;;;;15.60;99.90;;;;;;5106115;28;19987;-69
2022/07/11 02:53:45;;;;;;;;;;;15.70;99.90;;;;;;5090191;28;19962;-68
2022/07/11 02:56:13;;;;;;;;;;;15.60;99.90;;;;;;5106111;28;19920;-68
2022/07/11 02:58:39;;;;;;;;;;;15.60;99.90;;;;;;5105825;28;19935;-68
2022/07/11 03:01:06;;;;;;;;;;;15.60;99.90;;;;;;5088677;28;20035;-68
2022/07/11 03:03:33;;;;;;;;;;;15.60;99.90;;;;;;5092967;28;20179;-68
2022/07/11 03:05:59;;;;;;;;;;;15.60;99.90;;;;;;5105550;28;19983;-68
2022/07/11 03:08:27;;;;;;;;;;;15.60;99.90;;;;;;5105814;28;19962;-68
2022/07/11 03:10:54;;;;;;;;;;;15.60;99.90;;;;;;5105213;28;19927;-68
2022/07/11 03:13:21;;;;;;;;;;;15.60;99.90;;;;;;5105212;28;19991;-68
2022/07/11 03:15:47;;;;;;;;;;;15.60;99.90;;;;;;5105361;28;19920;-68
2022/07/11 03:18:14;;;;;;;;;;;15.50;99.90;;;;;;5105934;28;19951;-68
2022/07/11 03:20:41;;;;;;;;;;;15.50;99.90;;;;;;5105318;28;19986;-68
2022/07/11 03:23:07;;;;;;;;;;;15.50;99.90;;;;;;5097500;28;20286;-68
2022/07/11 03:25:35;;;;;;;;;;;15.50;99.90;;;;;;5097648;28;20149;-68
2022/07/11 03:28:02;;;;;;;;;;;15.50;99.90;;;;;;5105047;28;20184;-68
2022/07/11 03:30:28;;;;;;;;;;;15.50;99.90;;;;;;5088812;28;20227;-68
2022/07/11 03:32:55;;;;;;;;;;;15.50;99.90;;;;;;5099298;28;19920;-68
2022/07/11 03:38:05;;;;;;;;;;;15.50;99.90;;;;;;5105435;28;19954;-68
2022/07/11 03:40:32;;;;;;;;;;;15.50;99.90;;;;;;5105467;28;19986;-68
2022/07/11 03:43:00;;;;;;;;;;;15.50;99.90;;;;;;5104536;28;19991;-68
2022/07/11 03:45:27;;;;;;;;;;;15.50;99.90;;;;;;5093309;28;19921;-68
2022/07/11 03:47:54;;;;;;;;;;;15.50;99.90;;;;;;5084798;28;20208;-68
2022/07/11 03:50:20;;;;;;;;;;;15.50;99.90;;;;;;5098351;28;19919;-68
2022/07/11 03:52:47;;;;;;;;;;;15.50;99.90;;;;;;5103993;28;19983;-68
2022/07/11 03:55:14;;;;;;;;;;;15.50;99.90;;;;;;5104616;28;19955;-68
2022/07/11 03:57:40;;;;;;;;;;;15.50;99.90;;;;;;5104622;28;19926;-68
2022/07/11 04:00:09;;;;;;;;;;;15.50;99.90;;;;;;5104656;28;19959;-68
2022/07/11 04:02:36;;;;;;;;;;;15.50;99.90;;;;;;5104526;28;19955;-68
2022/07/11 04:05:03;;;;;;;;;;;15.50;99.90;;;;;;5104500;28;19979;-68
2022/07/11 04:07:30;;;;;;;;;;;15.60;99.90;;;;;;5104541;28;19983;-68
2022/07/11 04:09:57;;;;;;;;;;;15.60;99.90;;;;;;5104238;28;19927;-68
2022/07/11 04:12:24;;;;;;;;;;;15.60;99.90;;;;;;5104162;28;19990;-68
2022/07/11 04:14:50;;;;;;;;;;;15.60;99.90;;;;;;5104359;28;19959;-68
2022/07/11 04:17:18;;;;;;;;;;;15.60;99.90;;;;;;5104313;28;19979;-68
2022/07/11 04:19:45;;;;;;;;;;;15.60;99.90;;;;;;5104571;28;19991;-68
2022/07/11 04:22:12;;;;;;;;;;;15.60;99.90;;;;;;5103488;28;19920;-68
2022/07/11 04:24:39;;;;;;;;;;;15.60;99.90;;;;;;5092263;28;19921;-68
2022/07/11 04:27:06;;;;;;;;;;;15.60;99.90;;;;;;5100891;28;19928;-68
2022/07/11 04:29:32;;;;;;;;;;;15.60;99.90;;;;;;5104121;28;19995;-68
2022/07/11 04:31:59;;;;;;;;;;;15.60;99.90;;;;;;5104318;28;19983;-68
2022/07/11 04:34:27;;;;;;;;;;;15.60;99.90;;;;;;5103510;28;19927;-68
2022/07/11 04:36:54;;;;;;;;;;;15.60;99.90;;;;;;5103835;28;19983;-68
2022/07/11 04:39:20;;;;;;;;;;;15.60;99.90;;;;;;5098994;28;19921;-67
2022/07/11 04:41:47;;;;;;;;;;;15.60;99.90;;;;;;5100762;28;19920;-68
2022/07/11 04:44:14;;;;;;;;;;;15.60;99.90;;;;;;5091931;28;19984;-68
2022/07/11 04:46:40;;;;;;;;;;;15.70;99.90;;;;;;5091824;28;19955;-68
2022/07/11 04:49:07;;;;;;;;;;;15.60;99.90;;;;;;5083702;28;19963;-68
2022/07/11 04:51:36;;;;;;;;;;;15.70;99.90;;;;;;5083490;28;19963;-68
2022/07/11 04:54:02;;;;;;;;;;;15.70;99.90;;;;;;5082959;28;19973;-67
2022/07/11 04:56:29;;;;;;;;;;;15.70;99.90;;;;;;5103153;28;19983;-67
2022/07/11 04:58:56;;;;;;;;;;;15.70;99.90;;;;;;5103358;28;19936;-67
2022/07/11 05:01:22;;;;;;;;;;;15.70;99.90;;;;;;5103733;28;19920;-67
2022/07/11 05:03:49;;;;;;;;;;;15.70;99.90;;;;;;5102643;28;19988;-68
2022/07/11 05:06:16;;;;;;;;;;;15.70;99.90;;;;;;5103973;28;19927;-66
2022/07/11 05:08:44;;;;;;;;;;;15.70;99.90;;;;;;5103665;28;19977;-66
2022/07/11 05:11:10;;;;;;;;;;;15.70;99.90;;;;;;5083652;28;19924;-69
2022/07/11 05:13:37;;;;;;;;;;;15.80;99.90;;;;;;5082812;28;19956;-69
2022/07/11 05:16:04;;;;;;;;;;;15.80;99.90;;;;;;5089834;28;19920;-70
2022/07/11 05:18:31;;;;;;;;;;;15.80;99.90;;;;;;5103646;28;20227;-69
2022/07/11 05:20:58;;;;;;;;;;;15.80;99.90;;;;;;5100221;28;20234;-68
2022/07/11 05:23:24;;;;;;;;;;;15.80;99.90;;;;;;5096417;28;20163;-67
2022/07/11 05:25:52;;;;;;;;;;;15.90;99.90;;;;;;5103736;28;19943;-68
2022/07/11 05:28:19;;;;;;;;;;;15.90;99.90;;;;;;5103128;28;19920;-67
2022/07/11 05:30:45;;;;;;;;;;;15.90;99.90;;;;;;5103001;28;19954;-68
2022/07/11 05:33:12;;;;;;;;;;;16.00;99.90;;;;;;5103069;28;19920;-67
2022/07/11 05:35:39;;;;;;;;;;;16.00;99.90;;;;;;5102209;28;20116;-68
2022/07/11 05:38:05;;;;;;;;;;;15.90;99.90;;;;;;5103835;28;19985;-67
2022/07/11 05:40:32;;;;;;;;;;;15.90;99.90;;;;;;5103462;28;19959;-68
2022/07/11 05:43:00;;;;;;;;;;;15.90;99.90;;;;;;5103025;28;19991;-70
2022/07/11 05:45:27;;;;;;;;;;;16.00;99.90;;;;;;5103240;28;19987;-73
2022/07/11 05:47:54;;;;;;;;;;;16.00;99.90;;;;;;5103540;28;19926;-68
2022/07/11 05:50:21;;;;;;;;;;;15.90;99.90;;;;;;5103180;28;19920;-68
2022/07/11 05:52:47;;;;;;;;;;;15.90;99.90;;;;;;5086817;28;19959;-68
2022/07/11 05:55:14;;;;;;;;;;;15.90;99.90;;;;;;5087362;28;19987;-68
2022/07/11 05:57:40;;;;;;;;;;;16.00;99.90;;;;;;5094199;28;19970;-68
2022/07/11 06:00:09;;;;;;;;;;;16.00;99.90;;;;;;5098944;28;20223;-68
2022/07/11 06:02:36;;;;;;;;;;;16.00;99.90;;;;;;5086059;28;19920;-68
2022/07/11 06:05:02;;;;;;;;;;;16.00;99.90;;;;;;5094589;28;19919;-68
2022/07/11 06:10:14;;;;;;;;;;;16.10;99.90;;;;;;5107079;28;20184;-68
2022/07/11 06:12:41;;;;;;;;;;;16.10;99.90;;;;;;5097542;28;19956;-68
2022/07/11 06:15:10;;;;;;;;;;;16.10;99.90;;;;;;5086538;28;19927;-68
2022/07/11 06:17:37;;;;;;;;;;;16.10;99.90;;;;;;5086643;28;19989;-68
2022/07/11 06:20:04;;;;;;;;;;;16.10;99.90;;;;;;5101030;28;19959;-68
2022/07/11 06:22:31;;;;;;;;;;;16.10;99.90;;;;;;5106393;28;19921;-68
2022/07/11 06:24:58;;;;;;;;;;;16.20;99.90;;;;;;5106674;28;20227;-69
2022/07/11 06:27:25;;;;;;;;;;;16.20;99.90;;;;;;5106660;28;20208;-68
2022/07/11 06:29:51;;;;;;;;;;;16.20;99.90;;;;;;5106759;28;19955;-68
2022/07/11 06:32:19;;;;;;;;;;;16.20;99.90;;;;;;5106474;28;19927;-68
2022/07/11 06:34:46;;;;;;;;;;;16.20;99.90;;;;;;5106205;28;19991;-68
2022/07/11 06:37:13;;;;;;;;;;;16.20;99.90;;;;;;5106471;28;19983;-68
2022/07/11 06:39:39;;;;;;;;;;;16.20;99.90;;;;;;5106523;28;19988;-68
2022/07/11 06:42:06;;;;;;;;;;;16.20;99.90;;;;;;5106102;28;19991;-68
2022/07/11 06:44:33;;;;;;;;;;;16.30;99.90;;;;;;5106448;28;19923;-68
2022/07/11 06:46:59;;;;;;;;;;;16.40;99.90;;;;;;5106106;28;19927;-68
2022/07/11 06:49:27;;;;;;;;;;;16.40;99.90;;;;;;5106076;28;19983;-69
2022/07/11 06:51:54;;;;;;;;;;;16.40;99.90;;;;;;5086132;28;19920;-67
2022/07/11 06:54:21;;;;;;;;;;;16.40;99.90;;;;;;5100594;28;20160;-68
2022/07/11 06:56:47;;;;;;;;;;;16.50;99.90;;;;;;5105735;28;19979;-68
2022/07/11 06:59:14;;;;;;;;;;;16.50;99.90;;;;;;5091374;28;19942;-68
2022/07/11 07:01:40;;;;;;;;;;;16.60;99.90;;;;;;5106117;28;19920;-68
2022/07/11 07:04:07;;;;;;;;;;;16.60;99.90;;;;;;5104882;28;19920;-68
2022/07/11 07:06:35;;;;;;;;;;;16.50;99.90;;;;;;5106027;28;19965;-68
2022/07/11 07:09:03;;;;;;;;;;;16.50;99.90;;;;;;5105733;28;20198;-68
2022/07/11 07:11:29;;;;;;;;;;;16.60;99.90;;;;;;5089349;28;19956;-68
2022/07/11 07:13:56;;;;;;;;;;;16.50;99.90;;;;;;5085116;28;20101;-68
2022/07/11 07:16:22;;;;;;;;;;;16.60;99.90;;;;;;5085516;28;20175;-68
2022/07/11 07:18:50;;;;;;;;;;;16.60;99.90;;;;;;5085517;28;19987;-69
2022/07/11 07:21:17;;;;;;;;;;;16.60;99.90;;;;;;5086451;28;19947;-69
2022/07/11 07:23:45;;;;;;;;;;;16.70;99.90;;;;;;5102943;28;19991;-69
2022/07/11 07:26:11;;;;;;;;;;;16.80;99.90;;;;;;5105311;28;19949;-68
2022/07/11 07:28:39;;;;;;;;;;;16.80;99.90;;;;;;5105556;28;19927;-69
2022/07/11 07:31:06;;;;;;;;;;;16.90;99.90;;;;;;5099966;28;19921;-68
2022/07/11 07:33:33;;;;;;;;;;;16.90;99.90;;;;;;5090720;28;19967;-68
2022/07/11 07:36:00;;;;;;;;;;;16.90;99.90;;;;;;5094377;28;19920;-68
2022/07/11 07:38:27;;;;;;;;;;;17.00;99.90;;;;;;5095427;28;19955;-68
2022/07/11 07:40:55;;;;;;;;;;;17.00;99.90;;;;;;5091236;28;19984;-68
2022/07/11 07:43:22;;;;;;;;;;;17.00;99.90;;;;;;5101894;28;19935;-68
2022/07/11 07:45:48;;;;;;;;;;;17.00;99.90;;;;;;5104765;28;19928;-68
2022/07/11 07:48:15;;;;;;;;;;;16.90;99.90;;;;;;5096579;28;19927;-68
2022/07/11 07:50:42;;;;;;;;;;;17.00;99.90;;;;;;5095648;28;19928;-68
2022/07/11 07:53:09;;;;;;;;;;;17.00;99.90;;;;;;5084044;28;19921;-68
2022/07/11 07:55:36;;;;;;;;;;;17.00;99.90;;;;;;5103911;28;19942;-68
2022/07/11 07:58:04;;;;;;;;;;;17.00;99.90;;;;;;5101987;28;20115;-68
2022/07/11 08:03:14;;;;;;;;;;;17.10;99.90;;;;;;5094436;28;19979;-69
2022/07/11 08:05:41;;;;;;;;;;;17.10;99.90;;;;;;5098100;28;19921;-68
2022/07/11 08:08:08;;;;;;;;;;;17.10;99.90;;;;;;5089070;28;20234;-68
2022/07/11 08:10:35;;;;;;;;;;;17.10;99.90;;;;;;5099329;28;19980;-68
2022/07/11 08:13:01;;;;;;;;;;;17.10;99.90;;;;;;5095412;28;19945;-69
2022/07/11 08:15:29;;;;;;;;;;;17.10;99.90;;;;;;5098785;28;19947;-68
2022/07/11 08:17:56;;;;;;;;;;;17.20;99.90;;;;;;5101981;28;19982;-68
2022/07/11 08:20:23;;;;;;;;;;;17.20;99.90;;;;;;5094742;28;20278;-68
2022/07/11 08:22:49;;;;;;;;;;;17.20;99.90;;;;;;5096840;28;19920;-68
2022/07/11 08:25:16;;;;;;;;;;;17.30;99.90;;;;;;5092044;28;19931;-68
2022/07/11 08:27:43;;;;;;;;;;;17.30;99.90;;;;;;5091835;28;19936;-69
2022/07/11 08:30:10;;;;;;;;;;;17.40;99.90;;;;;;5091697;28;19920;-68
2022/07/11 08:32:40;;;;;;;;;;;17.50;99.90;;;;;;5094988;28;19987;-70
2022/07/11 08:35:07;;;;;;;;;;;17.50;99.90;;;;;;5093869;28;20266;-68
2022/07/11 08:37:33;;;;;;;;;;;17.50;99.90;;;;;;5095277;28;19987;-68
2022/07/11 08:40:00;;;;;;;;;;;17.60;99.90;;;;;;5092663;28;19927;-69
2022/07/11 08:42:29;;;;;;;;;;;17.60;99.90;;;;;;5086343;28;19927;-69
2022/07/11 08:44:56;;;;;;;;;;;17.60;99.90;;;;;;5094719;28;19963;-67
2022/07/11 08:47:23;;;;;;;;;;;17.60;99.90;;;;;;5094724;28;19920;-68
2022/07/11 08:49:52;;;;;;;;;;;17.60;99.90;;;;;;5094379;28;19920;-69
2022/07/11 08:52:19;;;;;;;;;;;17.70;99.90;;;;;;5096229;28;20235;-69
2022/07/11 08:54:45;;;;;;;;;;;17.80;99.90;;;;;;5103692;28;20123;-68
2022/07/11 08:57:12;;;;;;;;;;;17.80;99.90;;;;;;5096594;28;19979;-68
2022/07/11 08:59:41;;;;;;;;;;;17.90;99.90;;;;;;5084909;28;20011;-68
2022/07/11 09:02:09;;;;;;;;;;;17.90;99.90;;;;;;5088456;28;19979;-68
2022/07/11 09:04:36;;;;;;;;;;;18.00;99.90;;;;;;5098724;28;20188;-68
2022/07/11 09:07:05;;;;;;;;;;;18.00;99.90;;;;;;5103409;28;19928;-68
2022/07/11 09:09:32;;;;;;;;;;;18.00;99.90;;;;;;5093821;28;20109;-68
2022/07/11 09:11:59;;;;;;;;;;;18.00;99.90;;;;;;5098849;28;19920;-68
2022/07/11 09:14:26;;;;;;;;;;;18.00;99.90;;;;;;5089929;28;20258;-68
2022/07/11 09:16:57;;;;;;;;;;;18.00;99.90;;;;;;5102620;28;19958;-68
2022/07/11 09:19:24;;;;;;;;;;;18.00;99.90;;;;;;5103367;28;19920;-68
2022/07/11 09:27:45;;;;;;;;;;;18.20;99.90;;;;;;5094801;28;19973;-68
2022/07/11 09:30:22;;;;;;;;;;;18.20;99.90;;;;;;5103143;28;19951;-69
2022/07/11 09:32:53;;;;;;;;;;;18.20;99.90;;;;;;5102347;28;19979;-68
2022/07/11 09:35:19;;;;;;;;;;;18.20;99.90;;;;;;5088060;28;20138;-68
2022/07/11 09:37:49;;;;;;;;;;;18.30;99.90;;;;;;5087367;28;20741;-68
2022/07/11 09:40:18;;;;;;;;;;;18.40;99.90;;;;;;5099243;28;19924;-69
2022/07/11 09:42:48;;;;;;;;;;;18.40;99.90;;;;;;5097181;28;19920;-68
2022/07/11 09:45:16;;;;;;;;;;;18.50;99.90;;;;;;5090805;28;19924;-68
2022/07/11 09:47:43;;;;;;;;;;;18.50;99.90;;;;;;5087235;28;19927;-69
2022/07/11 09:50:10;;;;;;;;;;;18.40;99.90;;;;;;5096736;28;19995;-68
2022/07/11 09:52:36;;;;;;;;;;;18.40;99.90;;;;;;5090077;28;19967;-69
2022/07/11 09:55:05;;;;;;;;;;;18.40;99.90;;;;;;5098364;28;20101;-68
2022/07/11 09:57:34;;;;;;;;;;;18.40;99.90;;;;;;5086697;28;19979;-68
2022/07/11 10:00:01;;;;;;;;;;;18.30;99.90;;;;;;5102622;28;19955;-68
2022/07/11 10:02:28;;;;;;;;;;;18.30;99.90;;;;;;5101392;28;19971;-68
2022/07/11 10:04:55;;;;;;;;;;;18.20;99.90;;;;;;5095230;28;19920;-68
2022/07/11 10:07:22;;;;;;;;;;;18.20;99.90;;;;;;5091499;28;19927;-68
2022/07/11 10:09:49;;;;;;;;;;;18.20;99.90;;;;;;5102526;28;19986;-68
2022/07/11 10:12:16;;;;;;;;;;;18.10;99.90;;;;;;5087533;28;20208;-68
2022/07/11 10:14:45;;;;;;;;;;;18.10;99.90;;;;;;5094852;28;19928;-68
2022/07/11 10:17:16;;;;;;;;;;;18.10;99.90;;;;;;5091906;28;19963;-68
2022/07/11 10:19:50;;;;;;;;;;;18.10;99.90;;;;;;5090564;28;19929;-69
2022/07/11 10:22:20;;;;;;;;;;;18.00;99.90;;;;;;5081969;28;19921;-68
2022/07/11 10:24:53;;;;;;;;;;;18.00;99.90;;;;;;5095596;28;20170;-68
2022/07/11 10:27:23;;;;;;;;;;;18.00;99.90;;;;;;5098875;28;19926;-68
2022/07/11 10:29:52;;;;;;;;;;;18.10;99.90;;;;;;5099296;28;20271;-68
2022/07/11 10:32:20;;;;;;;;;;;18.30;99.90;;;;;;5101442;28;19927;-69
2022/07/11 10:34:47;;;;;;;;;;;18.30;99.90;;;;;;5102639;28;19936;-67
2022/07/11 10:37:14;;;;;;;;;;;18.40;99.90;;;;;;5096467;28;20089;-68
2022/07/11 10:39:57;;;;;;;;;;;18.50;99.90;;;;;;5104305;28;19955;-69
2022/07/11 10:42:37;;;;;;;;;;;18.70;99.90;;;;;;5100644;28;20227;-68
2022/07/11 10:45:07;;;;;;;;;;;18.80;99.90;;;;;;5104803;28;19966;-68
2022/07/11 10:47:36;;;;;;;;;;;19.00;99.90;;;;;;5094401;28;19999;-69
2022/07/11 10:50:06;;;;;;;;;;;19.10;99.90;;;;;;5099859;28;19932;-68
2022/07/11 10:52:34;;;;;;;;;;;19.20;99.90;;;;;;5101734;28;19951;-69
2022/07/11 10:55:06;;;;;;;;;;;19.40;99.90;;;;;;5095964;28;19995;-69
2022/07/11 10:57:36;;;;;;;;;;;19.50;99.90;;;;;;5093685;28;19947;-69
2022/07/11 11:00:04;;;;;;;;;;;19.50;99.90;;;;;;5095476;28;19982;-68
2022/07/11 11:02:52;;;;;;;;;;;19.30;99.90;;;;;;5098769;28;20008;-68
2022/07/11 11:05:40;;;;;;;;;;;19.10;99.90;;;;;;5097819;28;19991;-68
2022/07/11 11:08:40;;;;;;;;;;;19.00;99.90;;;;;;5101220;28;20259;-69
2022/07/11 11:11:07;;;;;;;;;;;18.90;99.90;;;;;;5098628;28;19979;-68
2022/07/11 11:13:36;;;;;;;;;;;18.80;99.90;;;;;;5098751;28;19928;-69
2022/07/11 11:16:03;;;;;;;;;;;18.80;99.90;;;;;;5095686;28;20007;-69
2022/07/11 11:18:41;;;;;;;;;;;18.80;99.90;;;;;;5101469;28;19920;-70
2022/07/11 11:21:20;;;;;;;;;;;18.90;99.90;;;;;;5100615;28;19986;-70
2022/07/11 11:24:02;;;;;;;;;;;19.20;99.90;;;;;;5100113;28;19920;-69
2022/07/11 11:26:42;;;;;;;;;;;19.60;99.90;;;;;;5092342;28;19920;-69
2022/07/11 11:29:09;;;;;;;;;;;20.00;99.90;;;;;;5098534;28;20220;-69
2022/07/11 11:31:36;;;;;;;;;;;20.20;99.90;;;;;;5104478;28;20111;-69
2022/07/11 11:34:04;;;;;;;;;;;20.30;99.90;;;;;;5095017;28;19927;-70
2022/07/11 11:36:31;;;;;;;;;;;20.50;99.90;;;;;;5103431;28;20001;-69
2022/07/11 11:38:58;;;;;;;;;;;20.40;99.90;;;;;;5104968;28;19927;-69
2022/07/11 11:41:25;;;;;;;;;;;20.40;99.90;;;;;;5096574;28;20002;-69
2022/07/11 11:43:52;;;;;;;;;;;20.30;99.90;;;;;;5100507;28;19987;-69
2022/07/11 11:46:19;;;;;;;;;;;20.30;99.90;;;;;;5094695;28;19950;-69
2022/07/11 11:48:46;;;;;;;;;;;20.20;99.90;;;;;;5096795;28;19920;-69
2022/07/11 11:51:15;;;;;;;;;;;20.10;99.90;;;;;;5099425;28;19958;-69
2022/07/11 11:53:43;;;;;;;;;;;19.90;99.90;;;;;;5096010;28;19920;-69
2022/07/11 11:56:15;;;;;;;;;;;19.70;99.90;;;;;;5094173;28;19982;-69
2022/07/11 11:58:43;;;;;;;;;;;19.60;99.90;;;;;;5096389;28;20128;-69
2022/07/11 12:01:09;;;;;;;;;;;19.60;99.90;;;;;;5094322;28;20127;-69
2022/07/11 12:03:49;;;;;;;;;;;19.50;99.90;;;;;;5102267;28;19986;-69
2022/07/11 12:06:17;;;;;;;;;;;19.60;99.90;;;;;;5087816;28;19947;-69
2022/07/11 12:08:44;;;;;;;;;;;19.60;99.90;;;;;;5104532;28;19920;-69
2022/07/11 12:11:12;;;;;;;;;;;19.80;99.90;;;;;;5099496;28;19936;-69
2022/07/11 12:13:39;;;;;;;;;;;19.90;99.90;;;;;;5092677;28;19987;-69
2022/07/11 12:18:56;;;;;;;;;;;20.10;99.90;;;;;;5095858;28;19982;-69
2022/07/11 12:21:24;;;;;;;;;;;20.10;99.90;;;;;;5096891;28;19959;-69
2022/07/11 12:23:51;;;;;;;;;;;20.10;99.90;;;;;;5091827;28;19920;-69
2022/07/11 12:26:18;;;;;;;;;;;20.10;99.90;;;;;;5094731;28;19979;-69
2022/07/11 12:29:04;;;;;;;;;;;19.80;99.90;;;;;;5095147;28;20216;-69
2022/07/11 12:31:40;;;;;;;;;;;19.70;99.90;;;;;;5091808;28;19921;-69
2022/07/11 12:34:07;;;;;;;;;;;19.50;99.90;;;;;;5099071;28;19959;-69
2022/07/11 12:36:35;;;;;;;;;;;19.30;99.90;;;;;;5094091;28;19942;-69
2022/07/11 12:39:01;;;;;;;;;;;19.10;99.90;;;;;;5094278;28;19944;-68
2022/07/11 12:41:29;;;;;;;;;;;19.00;99.90;;;;;;5096841;28;20278;-69
2022/07/11 12:46:42;;;;;;;;;;;18.90;99.90;;;;;;5099868;28;19961;-69
2022/07/11 12:49:09;;;;;;;;;;;19.10;99.90;;;;;;5092726;28;19927;-69
2022/07/11 12:51:39;;;;;;;;;;;19.20;99.90;;;;;;5092511;28;19920;-69
2022/07/11 12:54:07;;;;;;;;;;;19.30;99.90;;;;;;5098193;28;20003;-69
2022/07/11 12:56:34;;;;;;;;;;;19.40;99.90;;;;;;5095129;28;19951;-69
2022/07/11 12:59:01;;;;;;;;;;;19.40;99.90;;;;;;5096866;28;19920;-69
2022/07/11 13:01:28;;;;;;;;;;;19.50;99.90;;;;;;5091414;28;20251;-69
2022/07/11 13:03:55;;;;;;;;;;;19.50;99.90;;;;;;5091606;28;20208;-69
2022/07/11 13:08:42;;;;;;;;;;;19.60;99.90;;;;;;5091814;28;19979;-69
2022/07/11 13:09:09;;;;;;;;;;;19.80;99.90;;;;;;5099872;28;19953;-70
2022/07/11 13:11:36;;;;;;;;;;;20.00;99.90;;;;;;5096311;28;19995;-69
2022/07/11 13:14:02;;;;;;;;;;;20.10;99.90;;;;;;5095349;28;19920;-69
2022/07/11 13:16:29;;;;;;;;;;;20.30;99.90;;;;;;5101054;28;19920;-70
2022/07/11 13:18:58;;;;;;;;;;;20.30;99.90;;;;;;5091489;28;19939;-68
2022/07/11 13:21:25;;;;;;;;;;;20.30;99.90;;;;;;5092728;28;19957;-69
2022/07/11 13:23:51;;;;;;;;;;;20.30;99.90;;;;;;5100374;28;19920;-69
2022/07/11 13:26:19;;;;;;;;;;;20.50;99.90;;;;;;5089271;28;19979;-70
2022/07/11 13:28:46;;;;;;;;;;;20.80;99.90;;;;;;5092363;28;19921;-69
2022/07/11 13:31:13;;;;;;;;;;;21.10;99.90;;;;;;5085390;28;19955;-69
2022/07/11 13:33:41;;;;;;;;;;;21.20;99.90;;;;;;5094584;28;19955;-68
2022/07/11 13:36:08;;;;;;;;;;;21.20;99.90;;;;;;5092896;28;19946;-68
2022/07/11 13:38:35;;;;;;;;;;;21.00;99.90;;;;;;5090447;28;19963;-68
2022/07/11 13:41:01;;;;;;;;;;;20.70;99.90;;;;;;5095984;28;19932;-68
2022/07/11 13:43:30;;;;;;;;;;;20.60;99.90;;;;;;5102633;28;19951;-68
2022/07/11 13:45:57;;;;;;;;;;;20.50;99.90;;;;;;5103245;28;19927;-69
2022/07/11 13:48:23;;;;;;;;;;;20.50;99.90;;;;;;5095690;28;20209;-69
2022/07/11 13:50:50;;;;;;;;;;;20.50;99.90;;;;;;5102221;28;19927;-68
2022/07/11 13:53:17;;;;;;;;;;;20.60;99.90;;;;;;5093558;28;19935;-68
2022/07/11 13:55:44;;;;;;;;;;;20.60;99.90;;;;;;5097519;28;19920;-68
2022/07/11 13:58:24;;;;;;;;;;;20.60;99.90;;;;;;5094296;28;19920;-68
2022/07/11 14:00:53;;;;;;;;;;;20.60;99.90;;;;;;5100498;28;20222;-70
2022/07/11 14:03:20;;;;;;;;;;;20.60;99.90;;;;;;5101766;28;19987;-68
2022/07/11 14:05:47;;;;;;;;;;;20.60;99.90;;;;;;5083430;28;20307;-68
2022/07/11 14:08:13;;;;;;;;;;;20.70;99.90;;;;;;5092877;28;19920;-68
2022/07/11 14:10:41;;;;;;;;;;;20.70;99.90;;;;;;5098759;28;20141;-68
2022/07/11 14:13:07;;;;;;;;;;;20.80;99.90;;;;;;5102678;28;19927;-68
2022/07/11 14:15:34;;;;;;;;;;;20.80;99.90;;;;;;5107130;28;20009;-68
2022/07/11 14:18:03;;;;;;;;;;;20.90;99.90;;;;;;5107404;28;19927;-69
2022/07/11 14:20:29;;;;;;;;;;;21.10;99.90;;;;;;5106160;28;20199;-68
2022/07/11 14:22:56;;;;;;;;;;;21.30;99.90;;;;;;5098929;28;20097;-68
2022/07/11 14:25:23;;;;;;;;;;;21.50;99.90;;;;;;5105830;28;19956;-68
2022/07/11 14:27:50;;;;;;;;;;;21.50;99.90;;;;;;5104917;28;19920;-69
2022/07/11 14:30:17;;;;;;;;;;;21.60;99.90;;;;;;5104620;28;19959;-68
2022/07/11 14:32:43;;;;;;;;;;;21.40;99.90;;;;;;5097437;28;19963;-68
2022/07/11 14:35:11;;;;;;;;;;;21.20;99.90;;;;;;5106180;28;20110;-69
2022/07/11 14:37:38;;;;;;;;;;;21.10;99.90;;;;;;5092241;28;20287;-68
2022/07/11 14:40:05;;;;;;;;;;;21.00;99.90;;;;;;5106362;28;19926;-68